createdAt,value
2019-05-14T00:02:02.519Z,1.50
2019-05-14T00:04:31.578Z,1.13
2019-05-14T00:07:01.876Z,1.50
2019-05-14T00:09:32.342Z,1.60
2019-05-14T00:12:02.977Z,1.60
2019-05-14T00:14:39.818Z,1.63
2019-05-14T00:17:05.244Z,2.10
2019-05-14T00:19:35.628Z,1.70
2019-05-14T00:22:05.818Z,1.80
2019-05-14T00:24:36.060Z,1.57
2019-05-14T00:27:06.348Z,1.63
2019-05-14T00:29:36.663Z,1.33
2019-05-14T00:32:06.997Z,1.60
2019-05-14T00:34:37.200Z,1.67
2019-05-14T00:37:07.414Z,1.60
2019-05-14T00:39:37.685Z,1.33
2019-05-14T00:42:07.905Z,1.50
2019-05-14T00:44:51.664Z,1.40
2019-05-14T00:47:11.179Z,1.50
2019-05-14T00:49:42.485Z,1.80
2019-05-14T00:52:12.954Z,1.80
2019-05-14T00:54:43.159Z,1.53
2019-05-14T00:57:13.368Z,1.37
2019-05-14T00:59:43.573Z,1.73
2019-05-14T01:02:13.857Z,1.30
2019-05-14T01:04:44.147Z,1.40
2019-05-14T01:07:14.340Z,1.60
2019-05-14T01:09:44.570Z,1.63
2019-05-14T01:12:14.736Z,1.80
2019-05-14T01:14:45.068Z,1.50
2019-05-14T01:17:15.256Z,1.60
2019-05-14T01:19:45.529Z,1.90
2019-05-14T01:22:15.776Z,1.43
2019-05-14T01:24:46.074Z,1.50
2019-05-14T01:27:16.320Z,1.40
2019-05-14T01:29:46.561Z,1.33
2019-05-14T01:32:16.768Z,1.60
2019-05-14T01:34:46.968Z,1.70
2019-05-14T01:37:17.189Z,1.40
2019-05-14T01:39:47.414Z,1.40
2019-05-14T01:42:17.626Z,1.40
2019-05-14T01:44:47.840Z,1.40
2019-05-14T01:47:18.028Z,1.60
2019-05-14T01:49:48.280Z,1.50
2019-05-14T01:52:18.457Z,1.47
2019-05-14T01:54:48.702Z,1.37
2019-05-14T01:57:18.987Z,1.47
2019-05-14T01:59:51.464Z,1.60
2019-05-14T02:02:22.055Z,1.77
2019-05-14T02:04:52.530Z,1.33
2019-05-14T02:07:22.715Z,1.30
2019-05-14T02:09:52.969Z,1.77
2019-05-14T02:12:23.160Z,1.40
2019-05-14T02:14:53.340Z,1.50
2019-05-14T02:17:23.615Z,1.40
2019-05-14T02:19:53.780Z,1.60
2019-05-14T02:22:24.055Z,1.53
2019-05-14T02:24:54.229Z,1.70
2019-05-14T02:27:24.436Z,1.20
2019-05-14T02:29:54.673Z,1.30
2019-05-14T02:32:24.959Z,1.53
2019-05-14T02:34:55.156Z,1.60
2019-05-14T02:37:25.434Z,1.60
2019-05-14T02:39:55.590Z,1.60
2019-05-14T02:42:28.698Z,1.80
2019-05-14T02:44:59.256Z,1.50
2019-05-14T02:47:29.942Z,1.40
2019-05-14T02:50:00.269Z,1.53
2019-05-14T02:52:30.567Z,1.50
2019-05-14T02:55:00.816Z,1.60
2019-05-14T02:57:31.033Z,1.50
2019-05-14T03:00:01.314Z,1.60
2019-05-14T03:02:31.598Z,1.47
2019-05-14T03:05:01.933Z,1.50
2019-05-14T03:07:32.113Z,1.40
2019-05-14T03:10:02.314Z,1.70
2019-05-14T03:12:32.637Z,1.80
2019-05-14T03:15:02.793Z,1.97
2019-05-14T03:17:33.074Z,1.50
2019-05-14T03:20:03.414Z,1.60
2019-05-14T03:22:46.650Z,1.50
2019-05-14T03:25:05.665Z,1.60
2019-05-14T03:27:35.969Z,2.10
2019-05-14T03:30:11.586Z,1.60
2019-05-14T03:32:42.373Z,2.07
2019-05-14T03:35:13.350Z,1.73
2019-05-14T03:37:42.898Z,1.90
2019-05-14T03:40:13.230Z,2.50
2019-05-14T03:42:43.588Z,2.20
2019-05-14T03:45:14.089Z,1.80
2019-05-14T03:47:44.346Z,1.90
2019-05-14T03:50:14.686Z,2.30
2019-05-14T03:52:44.862Z,1.40
2019-05-14T03:55:15.025Z,1.97
2019-05-14T03:57:45.307Z,1.47
2019-05-14T04:00:18.734Z,1.30
2019-05-14T04:02:49.086Z,1.77
2019-05-14T04:05:22.651Z,1.70
2019-05-14T04:07:52.592Z,1.93
2019-05-14T04:10:23.028Z,1.67
2019-05-14T04:12:54.051Z,1.50
2019-05-14T04:15:29.880Z,2.10
2019-05-14T04:17:59.821Z,2.10
2019-05-14T04:20:32.402Z,1.83
2019-05-14T04:23:09.080Z,1.70
2019-05-14T04:25:40.390Z,2.27
2019-05-14T04:28:14.241Z,1.93
2019-05-14T04:30:49.303Z,1.90
2019-05-14T04:33:22.020Z,2.40
2019-05-14T04:35:52.971Z,2.03
2019-05-14T04:38:23.248Z,2.43
2019-05-14T04:40:53.537Z,2.13
2019-05-14T04:43:23.785Z,2.30
2019-05-14T04:45:54.072Z,1.80
2019-05-14T04:48:33.876Z,2.03
2019-05-14T04:51:00.032Z,2.00
2019-05-14T04:53:30.936Z,2.13
2019-05-14T04:56:00.537Z,2.30
2019-05-14T04:58:30.768Z,2.53
2019-05-14T05:01:01.142Z,2.63
2019-05-14T05:03:31.924Z,2.57
2019-05-14T05:06:14.635Z,2.37
2019-05-14T05:08:49.399Z,2.47
2019-05-14T05:11:21.082Z,2.13
2019-05-14T05:13:49.945Z,3.07
2019-05-14T05:16:20.106Z,2.37
2019-05-14T05:18:50.293Z,2.07
2019-05-14T05:21:20.565Z,3.27
2019-05-14T05:23:50.770Z,2.07
2019-05-14T05:26:21.025Z,2.40
2019-05-14T05:29:02.937Z,2.30
2019-05-14T05:31:23.164Z,2.80
2019-05-14T05:33:53.485Z,2.30
2019-05-14T05:36:23.720Z,1.90
2019-05-14T05:38:53.999Z,1.80
2019-05-14T05:41:24.196Z,1.83
2019-05-14T05:43:54.400Z,2.37
2019-05-14T05:46:24.566Z,2.30
2019-05-14T05:48:54.834Z,2.00
2019-05-14T05:51:25.074Z,2.23
2019-05-14T05:53:55.308Z,1.80
2019-05-14T05:56:25.495Z,1.73
2019-05-14T05:58:55.694Z,2.00
2019-05-14T06:01:41.200Z,1.87
2019-05-14T06:03:58.421Z,2.23
2019-05-14T06:06:28.690Z,2.17
2019-05-14T06:08:58.897Z,2.10
2019-05-14T06:11:29.219Z,3.00
2019-05-14T06:13:59.422Z,2.07
2019-05-14T06:16:29.712Z,2.30
2019-05-14T06:18:59.923Z,2.10
2019-05-14T06:21:30.229Z,2.30
2019-05-14T06:24:02.859Z,2.17
2019-05-14T06:26:32.473Z,1.80
2019-05-14T06:29:02.712Z,2.03
2019-05-14T06:31:32.993Z,2.10
2019-05-14T06:34:03.273Z,1.83
2019-05-14T06:36:33.570Z,1.80
2019-05-14T06:39:05.613Z,2.00
2019-05-14T06:41:39.877Z,1.87
2019-05-14T06:44:09.219Z,1.93
2019-05-14T06:46:39.645Z,2.60
2019-05-14T06:49:09.941Z,2.77
2019-05-14T06:51:40.185Z,1.90
2019-05-14T06:54:10.403Z,2.00
2019-05-14T06:56:40.641Z,1.80
2019-05-14T06:59:10.925Z,2.13
2019-05-14T07:01:41.188Z,1.93
2019-05-14T07:04:11.469Z,2.10
2019-05-14T07:06:41.650Z,2.37
2019-05-14T07:09:11.866Z,2.07
2019-05-14T07:11:42.133Z,2.00
2019-05-14T07:14:12.340Z,2.10
2019-05-14T07:16:42.633Z,1.90
2019-05-14T07:19:15.700Z,1.90
2019-05-14T07:21:44.750Z,1.90
2019-05-14T07:24:14.944Z,2.07
2019-05-14T07:26:45.154Z,2.03
2019-05-14T07:29:15.337Z,2.20
2019-05-14T07:31:45.602Z,4.00
2019-05-14T07:34:15.804Z,2.57
2019-05-14T07:36:46.097Z,2.57
2019-05-14T07:39:18.555Z,2.60
2019-05-14T07:41:48.585Z,2.73
2019-05-14T07:44:18.868Z,2.10
2019-05-14T07:46:51.800Z,1.97
2019-05-14T07:49:21.955Z,2.10
2019-05-14T07:51:52.159Z,1.90
2019-05-14T07:54:22.672Z,2.20
2019-05-14T07:56:53.168Z,2.10
2019-05-14T07:59:23.554Z,1.93
2019-05-14T08:01:54.214Z,2.30
2019-05-14T08:04:24.480Z,2.00
2019-05-14T08:06:54.671Z,2.17
2019-05-14T08:09:24.954Z,2.00
2019-05-14T08:11:55.259Z,2.30
2019-05-14T08:14:25.471Z,2.00
2019-05-14T08:16:55.657Z,2.03
2019-05-14T08:19:27.883Z,2.00
2019-05-14T08:21:58.701Z,1.93
2019-05-14T08:24:30.052Z,1.70
2019-05-14T08:27:00.526Z,1.90
2019-05-14T08:29:30.748Z,2.17
2019-05-14T08:32:01.061Z,1.97
2019-05-14T08:34:32.391Z,1.87
2019-05-14T08:37:03.989Z,2.13
2019-05-14T08:39:34.545Z,1.80
2019-05-14T08:42:04.769Z,2.00
2019-05-14T08:44:35.007Z,2.13
2019-05-14T08:47:05.247Z,1.87
2019-05-14T08:49:41.909Z,2.00
2019-05-14T08:52:08.777Z,2.30
2019-05-14T08:54:39.357Z,1.87
2019-05-14T08:57:10.050Z,2.40
2019-05-14T08:59:40.426Z,2.23
2019-05-14T09:02:11.012Z,2.40
2019-05-14T09:04:43.333Z,2.00
2019-05-14T09:07:13.370Z,2.00
2019-05-14T09:09:43.576Z,2.17
2019-05-14T09:12:13.845Z,2.13
2019-05-14T09:14:44.137Z,2.17
2019-05-14T09:17:14.970Z,2.30
2019-05-14T09:20:00.944Z,2.20
2019-05-14T09:22:18.495Z,1.70
2019-05-14T09:24:49.341Z,2.10
2019-05-14T09:27:19.646Z,2.73
2019-05-14T09:29:49.934Z,3.17
2019-05-14T09:32:20.272Z,2.77
2019-05-14T09:34:50.497Z,1.83
2019-05-14T09:37:20.772Z,2.40
2019-05-14T09:39:50.994Z,2.40
2019-05-14T09:42:21.306Z,2.73
2019-05-14T09:44:51.515Z,2.20
2019-05-14T09:47:21.882Z,2.23
2019-05-14T09:49:52.193Z,2.47
2019-05-14T09:52:22.559Z,2.10
2019-05-14T09:54:52.743Z,2.13
2019-05-14T09:57:23.002Z,2.27
2019-05-14T09:59:53.218Z,2.40
2019-05-14T10:02:23.410Z,1.83
2019-05-14T10:04:53.695Z,2.00
2019-05-14T10:07:24.001Z,1.87
2019-05-14T10:09:54.210Z,1.87
2019-05-14T10:12:24.491Z,2.10
2019-05-14T10:14:54.765Z,2.10
2019-05-14T10:17:24.967Z,2.17
2019-05-14T10:19:55.216Z,1.90
2019-05-14T10:22:25.486Z,1.77
2019-05-14T10:24:58.139Z,2.23
2019-05-14T10:27:28.432Z,1.60
2019-05-14T10:29:58.955Z,1.80
2019-05-14T10:32:29.571Z,1.60
2019-05-14T10:34:59.980Z,2.03
2019-05-14T10:37:30.289Z,1.80
2019-05-14T10:40:00.573Z,1.87
2019-05-14T10:42:30.878Z,3.60
2019-05-14T10:45:01.171Z,2.00
2019-05-14T10:47:31.460Z,1.70
2019-05-14T10:50:01.744Z,1.73
2019-05-14T10:52:32.106Z,1.87
2019-05-14T10:55:02.361Z,2.03
2019-05-14T10:57:32.658Z,3.67
2019-05-14T11:00:02.856Z,2.10
2019-05-14T11:02:33.132Z,2.00
2019-05-14T11:05:03.433Z,2.00
2019-05-14T11:07:33.724Z,2.03
2019-05-14T11:10:04.201Z,1.90
2019-05-14T11:12:34.478Z,1.67
2019-05-14T11:15:05.108Z,1.80
2019-05-14T11:17:35.365Z,2.20
2019-05-14T11:20:08.054Z,2.13
2019-05-14T11:22:38.178Z,2.03
2019-05-14T11:25:09.331Z,2.20
2019-05-14T11:27:39.818Z,1.77
2019-05-14T11:30:10.569Z,1.50
2019-05-14T11:32:40.883Z,1.90
2019-05-14T11:35:13.125Z,2.20
2019-05-14T11:37:43.457Z,1.90
2019-05-14T11:40:13.653Z,1.87
2019-05-14T11:42:43.951Z,1.80
2019-05-14T11:45:14.476Z,1.83
2019-05-14T11:47:44.752Z,1.50
2019-05-14T11:50:19.256Z,1.93
2019-05-14T11:52:49.199Z,1.50
2019-05-14T11:55:19.448Z,1.80
2019-05-14T11:57:49.700Z,1.70
2019-05-14T12:00:20.486Z,2.03
2019-05-14T12:02:50.784Z,2.10
2019-05-14T12:05:21.073Z,1.83
2019-05-14T12:07:51.378Z,1.50
2019-05-14T12:10:21.630Z,1.30
2019-05-14T12:12:51.921Z,1.90
2019-05-14T12:15:22.182Z,1.60
2019-05-14T12:17:52.458Z,1.50
2019-05-14T12:20:22.643Z,1.40
2019-05-14T12:22:52.915Z,1.67
2019-05-14T12:25:23.190Z,1.50
2019-05-14T12:27:53.497Z,1.80
2019-05-14T12:30:23.725Z,1.40
2019-05-14T12:32:54.025Z,1.60
2019-05-14T12:35:24.269Z,1.30
2019-05-14T12:37:54.548Z,1.70
2019-05-14T12:40:24.885Z,1.53
2019-05-14T12:42:55.111Z,1.83
2019-05-14T12:45:25.396Z,1.40
2019-05-14T12:47:58.312Z,1.60
2019-05-14T12:50:27.526Z,1.40
2019-05-14T12:52:58.884Z,1.20
2019-05-14T12:55:29.228Z,1.40
2019-05-14T12:57:59.884Z,1.40
2019-05-14T13:00:30.229Z,1.50
2019-05-14T13:03:00.857Z,1.70
2019-05-14T13:05:31.164Z,1.43
2019-05-14T13:08:01.504Z,1.63
2019-05-14T13:10:31.720Z,1.33
2019-05-14T13:13:01.985Z,1.13
2019-05-14T13:15:32.165Z,1.40
2019-05-14T13:18:02.521Z,1.10
2019-05-14T13:20:32.839Z,1.20
2019-05-14T13:23:03.109Z,1.03
2019-05-14T13:25:33.423Z,1.00
2019-05-14T13:28:03.602Z,1.20
2019-05-14T13:30:33.889Z,1.13
2019-05-14T13:33:04.147Z,1.20
2019-05-14T13:35:34.424Z,1.10
2019-05-14T13:38:04.772Z,1.07
2019-05-14T13:40:35.031Z,1.33
2019-05-14T13:43:05.204Z,1.10
2019-05-14T13:45:35.497Z,1.10
2019-05-14T13:48:08.198Z,1.30
2019-05-14T13:50:40.130Z,1.10
2019-05-14T13:53:12.711Z,1.00
2019-05-14T13:55:46.503Z,1.20
2019-05-14T13:58:13.402Z,0.93
2019-05-14T14:00:43.749Z,1.20
2019-05-14T14:03:14.046Z,1.13
2019-05-14T14:05:44.428Z,1.00
2019-05-14T14:08:14.726Z,1.00
2019-05-14T14:10:51.579Z,1.10
2019-05-14T14:13:19.507Z,0.90
2019-05-14T14:15:49.152Z,1.20
2019-05-14T14:18:20.933Z,1.17
2019-05-14T14:20:51.608Z,1.10
2019-05-14T14:23:26.969Z,1.20
2019-05-14T14:25:55.687Z,1.13
2019-05-14T14:28:25.851Z,1.40
2019-05-14T14:30:56.053Z,1.00
2019-05-14T14:33:28.729Z,1.03
2019-05-14T14:35:58.586Z,1.20
2019-05-14T14:38:29.517Z,1.20
2019-05-14T14:40:59.913Z,1.10
2019-05-14T14:43:30.139Z,1.30
2019-05-14T14:46:00.454Z,1.60
2019-05-14T14:48:30.763Z,1.13
2019-05-14T14:51:01.048Z,0.97
2019-05-14T14:53:47.411Z,0.93
2019-05-14T14:56:03.294Z,1.03
2019-05-14T14:58:33.592Z,0.90
2019-05-14T15:01:03.870Z,0.73
2019-05-14T15:03:34.071Z,1.00
2019-05-14T15:06:04.356Z,1.00
2019-05-14T15:08:34.641Z,0.90
2019-05-14T15:11:04.882Z,0.90
2019-05-14T15:13:35.141Z,0.97
2019-05-14T15:16:05.678Z,1.03
2019-05-14T15:18:38.569Z,1.27
2019-05-14T15:21:09.719Z,1.00
2019-05-14T15:23:45.194Z,0.97
2019-05-14T15:26:12.432Z,1.00
2019-05-14T15:28:42.614Z,0.70
2019-05-14T15:31:15.655Z,1.20
2019-05-14T15:33:50.424Z,1.07
2019-05-14T15:36:19.630Z,0.90
2019-05-14T15:38:49.863Z,0.80
2019-05-14T15:41:20.647Z,1.03
2019-05-14T15:43:50.929Z,0.90
2019-05-14T15:46:21.222Z,1.00
2019-05-14T15:48:51.434Z,1.00
2019-05-14T15:51:21.688Z,1.10
2019-05-14T15:54:11.246Z,0.90
2019-05-14T15:56:24.002Z,1.00
2019-05-14T15:58:54.432Z,0.97
2019-05-14T16:01:24.769Z,1.10
2019-05-14T16:03:55.089Z,1.00
2019-05-14T16:06:25.381Z,0.80
2019-05-14T16:08:55.669Z,1.00
2019-05-14T16:11:26.007Z,1.27
2019-05-14T16:13:56.305Z,1.20
2019-05-14T16:16:28.903Z,1.23
2019-05-14T16:18:59.368Z,1.20
2019-05-14T16:21:29.656Z,1.20
2019-05-14T16:24:00.053Z,1.20
2019-05-14T16:26:31.210Z,1.37
2019-05-14T16:29:01.589Z,8.17
2019-05-14T16:31:31.922Z,4.37
2019-05-14T16:34:02.302Z,1.00
2019-05-14T16:36:32.854Z,1.57
2019-05-14T16:39:03.728Z,1.30
2019-05-14T16:41:34.142Z,1.20
2019-05-14T16:44:04.978Z,1.07
2019-05-14T16:46:35.253Z,1.00
2019-05-14T16:49:05.568Z,0.90
2019-05-14T16:51:35.907Z,1.20
2019-05-14T16:54:06.119Z,1.20
2019-05-14T16:56:41.056Z,1.67
2019-05-14T16:59:09.585Z,1.90
2019-05-14T17:01:39.964Z,1.70
2019-05-14T17:04:10.282Z,1.40
2019-05-14T17:06:43.035Z,1.10
2019-05-14T17:09:13.385Z,1.70
2019-05-14T17:11:43.761Z,1.20
2019-05-14T17:14:14.178Z,1.30
2019-05-14T17:16:44.624Z,1.20
2019-05-14T17:19:15.743Z,0.90
2019-05-14T17:21:48.539Z,0.93
2019-05-14T17:24:21.029Z,1.00
2019-05-14T17:26:51.310Z,1.30
2019-05-14T17:29:21.581Z,1.00
2019-05-14T17:31:51.940Z,1.30
2019-05-14T17:34:22.242Z,1.53
2019-05-14T17:36:52.650Z,1.17
2019-05-14T17:39:23.095Z,1.40
2019-05-14T17:41:53.415Z,1.10
2019-05-14T17:44:26.742Z,0.90
2019-05-14T17:46:58.676Z,1.07
2019-05-14T17:49:29.333Z,0.97
2019-05-14T17:51:59.656Z,1.07
2019-05-14T17:54:29.937Z,0.90
2019-05-14T17:57:00.338Z,0.90
2019-05-14T17:59:33.469Z,1.00
2019-05-14T18:02:02.764Z,1.10
2019-05-14T18:04:33.123Z,0.80
2019-05-14T18:07:03.531Z,0.77
2019-05-14T18:09:33.867Z,0.80
2019-05-14T18:12:08.186Z,0.80
2019-05-14T18:14:38.759Z,0.83
2019-05-14T18:17:09.409Z,1.00
2019-05-14T18:19:39.814Z,1.10
2019-05-14T18:22:10.630Z,1.00
2019-05-14T18:24:40.984Z,1.10
2019-05-14T18:27:11.338Z,0.77
2019-05-14T18:29:41.823Z,1.30
2019-05-14T18:32:12.164Z,1.10
2019-05-14T18:34:42.671Z,1.07
2019-05-14T18:37:14.000Z,0.97
2019-05-14T18:39:44.497Z,1.03
2019-05-14T18:42:14.910Z,0.93
2019-05-14T18:44:49.619Z,1.00
2019-05-14T18:47:20.049Z,1.40
2019-05-14T18:49:50.589Z,1.40
2019-05-14T18:52:20.929Z,1.10
2019-05-14T18:54:51.264Z,1.07
2019-05-14T18:57:21.614Z,1.30
2019-05-14T18:59:54.004Z,1.10
2019-05-14T19:02:29.081Z,1.10
2019-05-14T19:05:02.183Z,1.07
2019-05-14T19:07:32.722Z,1.67
2019-05-14T19:10:03.102Z,2.70
2019-05-14T19:12:40.636Z,2.10
2019-05-14T19:15:13.970Z,2.30
2019-05-14T19:17:44.337Z,2.40
2019-05-14T19:20:15.007Z,2.33
2019-05-14T19:22:45.425Z,1.90
2019-05-14T19:25:15.968Z,1.90
2019-05-14T19:27:48.606Z,1.47
2019-05-14T19:30:19.183Z,1.10
2019-05-14T19:32:49.627Z,1.10
2019-05-14T19:35:20.106Z,1.27
2019-05-14T19:37:50.433Z,1.00
2019-05-14T19:40:20.815Z,1.13
2019-05-14T19:42:51.106Z,1.20
2019-05-14T19:45:21.391Z,1.20
2019-05-14T19:47:51.712Z,1.13
2019-05-14T19:50:22.003Z,1.27
2019-05-14T19:52:52.340Z,1.20
2019-05-14T19:55:22.852Z,1.30
2019-05-14T19:57:53.207Z,1.20
2019-05-14T20:00:28.912Z,1.63
2019-05-14T20:03:00.461Z,2.20
2019-05-14T20:05:31.085Z,1.67
2019-05-14T20:08:01.405Z,1.67
2019-05-14T20:10:31.736Z,2.20
2019-05-14T20:13:01.985Z,2.00
2019-05-14T20:15:32.327Z,3.20
2019-05-14T20:18:02.670Z,2.37
2019-05-14T20:20:33.102Z,1.93
2019-05-14T20:23:03.389Z,1.43
2019-05-14T20:25:33.744Z,1.47
2019-05-14T20:28:04.075Z,1.37
2019-05-14T20:30:34.445Z,1.60
2019-05-14T20:33:04.875Z,1.27
2019-05-14T20:35:35.247Z,1.50
2019-05-14T20:38:05.668Z,1.30
2019-05-14T20:40:38.014Z,1.27
2019-05-14T20:43:10.336Z,1.40
2019-05-14T20:45:40.200Z,1.20
2019-05-14T20:48:10.895Z,1.00
2019-05-14T20:50:41.342Z,1.37
2019-05-14T20:53:11.751Z,1.17
2019-05-14T20:55:42.069Z,1.20
2019-05-14T20:58:12.463Z,1.13
2019-05-14T21:00:42.874Z,1.00
2019-05-14T21:03:15.148Z,1.40
2019-05-14T21:05:45.428Z,1.40
2019-05-14T21:08:15.816Z,1.30
2019-05-14T21:10:46.495Z,1.80
2019-05-14T21:13:18.159Z,1.47
2019-05-14T21:15:48.669Z,1.50
2019-05-14T21:18:19.138Z,1.30
2019-05-14T21:20:52.818Z,1.20
2019-05-14T21:23:23.278Z,0.87
2019-05-14T21:25:53.729Z,1.10
2019-05-14T21:28:24.143Z,0.90
2019-05-14T21:30:54.449Z,1.10
2019-05-14T21:33:24.844Z,0.90
2019-05-14T21:35:55.081Z,1.20
2019-05-14T21:38:25.432Z,1.20
2019-05-14T21:40:58.156Z,1.13
2019-05-14T21:43:32.379Z,1.30
2019-05-14T21:46:02.774Z,1.13
2019-05-14T21:48:35.431Z,1.20
2019-05-14T21:51:05.095Z,1.30
2019-05-14T21:53:35.463Z,1.60
2019-05-14T21:56:05.817Z,1.53
2019-05-14T21:58:38.519Z,1.30
2019-05-14T22:01:10.620Z,1.20
2019-05-14T22:03:40.911Z,1.20
2019-05-14T22:06:11.206Z,0.90
2019-05-14T22:08:42.067Z,1.13
2019-05-14T22:11:12.444Z,1.10
2019-05-14T22:13:42.862Z,1.30
2019-05-14T22:16:13.084Z,1.00
2019-05-14T22:18:43.388Z,1.00
2019-05-14T22:21:13.618Z,1.03
2019-05-14T22:23:44.008Z,1.30
2019-05-14T22:26:14.217Z,1.27
2019-05-14T22:28:44.627Z,1.30
2019-05-14T22:31:17.116Z,1.10
2019-05-14T22:33:46.856Z,1.00
2019-05-14T22:36:20.908Z,1.30
2019-05-14T22:38:49.089Z,1.10
2019-05-14T22:41:19.428Z,0.90
2019-05-14T22:43:51.532Z,1.20
2019-05-14T22:46:21.901Z,1.10
2019-05-14T22:48:53.507Z,1.20
2019-05-14T22:51:23.853Z,1.03
2019-05-14T22:53:54.234Z,0.97
2019-05-14T22:56:24.540Z,0.93
2019-05-14T22:58:54.861Z,1.10
2019-05-14T23:01:25.126Z,1.20
2019-05-14T23:03:55.435Z,1.30
2019-05-14T23:06:28.041Z,1.20
2019-05-14T23:08:58.223Z,1.40
2019-05-14T23:11:28.988Z,1.37
2019-05-14T23:13:59.544Z,1.07
2019-05-14T23:16:37.516Z,1.07
2019-05-14T23:19:02.028Z,1.00
2019-05-14T23:21:32.419Z,1.30
2019-05-14T23:24:02.669Z,1.20
2019-05-14T23:26:32.944Z,1.50
2019-05-14T23:29:03.244Z,1.20
2019-05-14T23:31:33.639Z,1.10
2019-05-14T23:34:03.998Z,1.20
2019-05-14T23:36:34.697Z,1.30
2019-05-14T23:39:08.701Z,1.30
2019-05-14T23:41:38.965Z,1.40
2019-05-14T23:44:09.263Z,1.30
2019-05-14T23:46:39.541Z,1.30
2019-05-14T23:49:09.765Z,1.00
2019-05-14T23:51:39.975Z,1.40
2019-05-14T23:54:10.382Z,1.57
2019-05-14T23:56:40.739Z,1.20
2019-05-14T23:59:11.033Z,1.40
